sensor_id;sensor_type;location;lat;lon;timestamp;temperature;humidity
57434;DHT22;43277;52.672;6.984;2022-07-17T00:02:02;11.40;99.90
57434;DHT22;43277;52.672;6.984;2022-07-17T00:04:27;11.40;99.90
57434;DHT22;43277;52.672;6.984;2022-07-17T00:06:53;11.30;99.90
57434;DHT22;43277;52.672;6.984;2022-07-17T00:09:19;11.30;99.90
57434;DHT22;43277;52.672;6.984;2022-07-17T00:11:45;11.20;99.90
57434;DHT22;43277;52.672;6.984;2022-07-17T00:14:10;11.10;99.90
57434;DHT22;43277;52.672;6.984;2022-07-17T00:16:36;11.00;99.90
57434;DHT22;43277;52.672;6.984;2022-07-17T00:19:02;10.90;99.90
57434;DHT22;43277;52.672;6.984;2022-07-17T00:21:28;10.90;99.90
57434;DHT22;43277;52.672;6.984;2022-07-17T00:23:53;10.80;99.90
57434;DHT22;43277;52.672;6.984;2022-07-17T00:26:19;10.80;99.90
57434;DHT22;43277;52.672;6.984;2022-07-17T00:28:44;10.70;99.90
57434;DHT22;43277;52.672;6.984;2022-07-17T00:31:10;10.70;99.90
57434;DHT22;43277;52.672;6.984;2022-07-17T00:33:38;10.60;99.90
57434;DHT22;43277;52.672;6.984;2022-07-17T00:36:04;10.60;99.90
57434;DHT22;43277;52.672;6.984;2022-07-17T00:38:30;10.50;99.90
57434;DHT22;43277;52.672;6.984;2022-07-17T00:40:56;10.40;99.90
57434;DHT22;43277;52.672;6.984;2022-07-17T00:43:23;10.40;99.90
57434;DHT22;43277;52.672;6.984;2022-07-17T00:46:00;10.30;99.90
57434;DHT22;43277;52.672;6.984;2022-07-17T00:48:26;10.30;99.90
57434;DHT22;43277;52.672;6.984;2022-07-17T00:50:53;10.20;99.90
57434;DHT22;43277;52.672;6.984;2022-07-17T00:53:18;10.20;99.90
57434;DHT22;43277;52.672;6.984;2022-07-17T00:55:46;10.20;99.90
57434;DHT22;43277;52.672;6.984;2022-07-17T00:58:21;10.20;99.90
57434;DHT22;43277;52.672;6.984;2022-07-17T01:00:49;10.20;99.90
57434;DHT22;43277;52.672;6.984;2022-07-17T01:03:16;10.20;99.90
57434;DHT22;43277;52.672;6.984;2022-07-17T01:05:42;10.10;99.90
57434;DHT22;43277;52.672;6.984;2022-07-17T01:08:08;10.00;99.90
57434;DHT22;43277;52.672;6.984;2022-07-17T01:10:34;9.90;99.90
57434;DHT22;43277;52.672;6.984;2022-07-17T01:13:00;9.90;99.90
57434;DHT22;43277;52.672;6.984;2022-07-17T01:15:25;9.90;99.90
57434;DHT22;43277;52.672;6.984;2022-07-17T01:17:51;10.00;99.90
57434;DHT22;43277;52.672;6.984;2022-07-17T01:20:17;10.00;99.90
57434;DHT22;43277;52.672;6.984;2022-07-17T01:22:48;10.00;99.90
57434;DHT22;43277;52.672;6.984;2022-07-17T01:25:15;9.90;99.90
57434;DHT22;43277;52.672;6.984;2022-07-17T01:27:42;9.90;99.90
57434;DHT22;43277;52.672;6.984;2022-07-17T01:30:09;9.80;99.90
57434;DHT22;43277;52.672;6.984;2022-07-17T01:32:36;9.80;99.90
57434;DHT22;43277;52.672;6.984;2022-07-17T01:35:03;9.70;99.90
57434;DHT22;43277;52.672;6.984;2022-07-17T01:37:29;9.50;99.90
57434;DHT22;43277;52.672;6.984;2022-07-17T01:39:55;9.50;99.90
57434;DHT22;43277;52.672;6.984;2022-07-17T01:42:23;9.50;99.90
57434;DHT22;43277;52.672;6.984;2022-07-17T01:44:49;9.50;99.90
57434;DHT22;43277;52.672;6.984;2022-07-17T01:47:16;9.50;99.90
57434;DHT22;43277;52.672;6.984;2022-07-17T01:49:50;9.40;99.90
57434;DHT22;43277;52.672;6.984;2022-07-17T01:52:16;9.40;99.90
57434;DHT22;43277;52.672;6.984;2022-07-17T01:54:42;9.40;99.90
57434;DHT22;43277;52.672;6.984;2022-07-17T01:57:09;9.40;99.90
57434;DHT22;43277;52.672;6.984;2022-07-17T01:59:35;9.30;99.90
57434;DHT22;43277;52.672;6.984;2022-07-17T02:02:01;9.30;99.90
57434;DHT22;43277;52.672;6.984;2022-07-17T02:04:27;9.30;99.90
57434;DHT22;43277;52.672;6.984;2022-07-17T02:06:54;9.30;99.90
57434;DHT22;43277;52.672;6.984;2022-07-17T02:09:21;9.40;99.90
57434;DHT22;43277;52.672;6.984;2022-07-17T02:11:47;9.30;99.90
57434;DHT22;43277;52.672;6.984;2022-07-17T02:14:12;9.30;99.90
57434;DHT22;43277;52.672;6.984;2022-07-17T02:16:38;9.30;99.90
57434;DHT22;43277;52.672;6.984;2022-07-17T02:19:04;9.30;99.90
57434;DHT22;43277;52.672;6.984;2022-07-17T02:21:29;9.30;99.90
57434;DHT22;43277;52.672;6.984;2022-07-17T02:23:55;9.20;99.90
57434;DHT22;43277;52.672;6.984;2022-07-17T02:26:21;9.20;99.90
57434;DHT22;43277;52.672;6.984;2022-07-17T02:28:46;9.30;99.90
57434;DHT22;43277;52.672;6.984;2022-07-17T02:31:12;9.20;99.90
57434;DHT22;43277;52.672;6.984;2022-07-17T02:33:37;9.30;99.90
57434;DHT22;43277;52.672;6.984;2022-07-17T02:36:04;9.30;99.90
57434;DHT22;43277;52.672;6.984;2022-07-17T02:38:29;9.30;99.90
57434;DHT22;43277;52.672;6.984;2022-07-17T02:40:55;9.30;99.90
57434;DHT22;43277;52.672;6.984;2022-07-17T02:43:20;9.30;99.90
57434;DHT22;43277;52.672;6.984;2022-07-17T02:45:46;9.30;99.90
57434;DHT22;43277;52.672;6.984;2022-07-17T02:48:12;9.30;99.90
57434;DHT22;43277;52.672;6.984;2022-07-17T02:50:37;9.30;99.90
57434;DHT22;43277;52.672;6.984;2022-07-17T02:53:03;9.30;99.90
57434;DHT22;43277;52.672;6.984;2022-07-17T02:55:28;9.30;99.90
57434;DHT22;43277;52.672;6.984;2022-07-17T02:57:54;9.30;99.90
57434;DHT22;43277;52.672;6.984;2022-07-17T03:00:20;9.20;99.90
57434;DHT22;43277;52.672;6.984;2022-07-17T03:02:46;9.20;99.90
57434;DHT22;43277;52.672;6.984;2022-07-17T03:05:14;9.10;99.90
57434;DHT22;43277;52.672;6.984;2022-07-17T03:07:40;9.10;99.90
57434;DHT22;43277;52.672;6.984;2022-07-17T03:10:07;9.10;99.90
57434;DHT22;43277;52.672;6.984;2022-07-17T03:12:33;9.10;99.90
57434;DHT22;43277;52.672;6.984;2022-07-17T03:14:59;9.20;99.90
57434;DHT22;43277;52.672;6.984;2022-07-17T03:17:25;9.20;99.90
57434;DHT22;43277;52.672;6.984;2022-07-17T03:19:51;9.20;99.90
57434;DHT22;43277;52.672;6.984;2022-07-17T03:22:17;9.10;99.90
57434;DHT22;43277;52.672;6.984;2022-07-17T03:24:42;9.10;99.90
57434;DHT22;43277;52.672;6.984;2022-07-17T03:27:08;9.00;99.90
57434;DHT22;43277;52.672;6.984;2022-07-17T03:29:33;9.00;99.90
57434;DHT22;43277;52.672;6.984;2022-07-17T03:31:59;8.90;99.90
57434;DHT22;43277;52.672;6.984;2022-07-17T03:34:25;8.90;99.90
57434;DHT22;43277;52.672;6.984;2022-07-17T03:36:50;8.80;99.90
57434;DHT22;43277;52.672;6.984;2022-07-17T03:39:18;8.80;99.90
57434;DHT22;43277;52.672;6.984;2022-07-17T03:41:44;8.80;99.90
57434;DHT22;43277;52.672;6.984;2022-07-17T03:44:10;8.80;99.90
57434;DHT22;43277;52.672;6.984;2022-07-17T03:46:35;8.90;99.90
57434;DHT22;43277;52.672;6.984;2022-07-17T03:49:01;9.00;99.90
57434;DHT22;43277;52.672;6.984;2022-07-17T03:51:26;9.00;99.90
57434;DHT22;43277;52.672;6.984;2022-07-17T03:53:52;9.10;99.90
57434;DHT22;43277;52.672;6.984;2022-07-17T03:56:18;9.20;99.90
57434;DHT22;43277;52.672;6.984;2022-07-17T03:58:43;9.20;99.90
57434;DHT22;43277;52.672;6.984;2022-07-17T04:01:09;9.20;99.90
57434;DHT22;43277;52.672;6.984;2022-07-17T04:03:35;9.10;99.90
57434;DHT22;43277;52.672;6.984;2022-07-17T04:06:00;9.10;99.90
57434;DHT22;43277;52.672;6.984;2022-07-17T04:08:26;9.00;99.90
57434;DHT22;43277;52.672;6.984;2022-07-17T04:10:51;8.90;99.90
57434;DHT22;43277;52.672;6.984;2022-07-17T04:13:17;8.90;99.90
57434;DHT22;43277;52.672;6.984;2022-07-17T04:15:43;8.80;99.90
57434;DHT22;43277;52.672;6.984;2022-07-17T04:18:16;8.80;99.90
57434;DHT22;43277;52.672;6.984;2022-07-17T04:20:42;8.70;99.90
57434;DHT22;43277;52.672;6.984;2022-07-17T04:23:08;8.70;99.90
57434;DHT22;43277;52.672;6.984;2022-07-17T04:25:33;8.70;99.90
57434;DHT22;43277;52.672;6.984;2022-07-17T04:27:59;8.70;99.90
57434;DHT22;43277;52.672;6.984;2022-07-17T04:30:25;8.70;99.90
57434;DHT22;43277;52.672;6.984;2022-07-17T04:32:50;8.80;99.90
57434;DHT22;43277;52.672;6.984;2022-07-17T04:35:16;8.80;99.90
57434;DHT22;43277;52.672;6.984;2022-07-17T04:37:42;8.90;99.90
57434;DHT22;43277;52.672;6.984;2022-07-17T04:40:08;8.90;99.90
57434;DHT22;43277;52.672;6.984;2022-07-17T04:42:34;9.00;99.90
57434;DHT22;43277;52.672;6.984;2022-07-17T04:44:59;9.00;99.90
57434;DHT22;43277;52.672;6.984;2022-07-17T04:47:25;9.10;99.90
57434;DHT22;43277;52.672;6.984;2022-07-17T04:49:51;9.20;99.90
57434;DHT22;43277;52.672;6.984;2022-07-17T04:52:19;9.20;99.90
57434;DHT22;43277;52.672;6.984;2022-07-17T04:54:45;9.30;99.90
57434;DHT22;43277;52.672;6.984;2022-07-17T04:57:10;9.30;99.90
57434;DHT22;43277;52.672;6.984;2022-07-17T04:59:36;9.40;99.90
57434;DHT22;43277;52.672;6.984;2022-07-17T05:02:03;9.50;99.90
57434;DHT22;43277;52.672;6.984;2022-07-17T05:04:29;9.50;99.90
57434;DHT22;43277;52.672;6.984;2022-07-17T05:06:54;9.70;99.90
57434;DHT22;43277;52.672;6.984;2022-07-17T05:09:20;9.80;99.90
57434;DHT22;43277;52.672;6.984;2022-07-17T05:11:46;9.90;99.90
57434;DHT22;43277;52.672;6.984;2022-07-17T05:14:11;10.00;99.90
57434;DHT22;43277;52.672;6.984;2022-07-17T05:16:37;10.10;99.90
57434;DHT22;43277;52.672;6.984;2022-07-17T05:19:03;10.10;99.90
57434;DHT22;43277;52.672;6.984;2022-07-17T05:21:28;10.30;99.90
57434;DHT22;43277;52.672;6.984;2022-07-17T05:23:54;10.40;99.90
57434;DHT22;43277;52.672;6.984;2022-07-17T05:26:21;10.50;99.90
57434;DHT22;43277;52.672;6.984;2022-07-17T05:28:46;10.60;99.90
57434;DHT22;43277;52.672;6.984;2022-07-17T05:31:12;10.70;99.90
57434;DHT22;43277;52.672;6.984;2022-07-17T05:33:38;10.80;99.90
57434;DHT22;43277;52.672;6.984;2022-07-17T05:36:03;10.90;99.90
57434;DHT22;43277;52.672;6.984;2022-07-17T05:38:29;11.10;99.90
57434;DHT22;43277;52.672;6.984;2022-07-17T05:40:55;11.30;99.90
57434;DHT22;43277;52.672;6.984;2022-07-17T05:43:20;11.40;99.90
57434;DHT22;43277;52.672;6.984;2022-07-17T05:45:46;11.60;99.90
57434;DHT22;43277;52.672;6.984;2022-07-17T05:48:11;11.80;99.90
57434;DHT22;43277;52.672;6.984;2022-07-17T05:50:37;12.00;99.90
57434;DHT22;43277;52.672;6.984;2022-07-17T05:53:02;12.30;99.90
57434;DHT22;43277;52.672;6.984;2022-07-17T05:55:28;12.40;99.90
57434;DHT22;43277;52.672;6.984;2022-07-17T05:57:54;12.60;99.90
57434;DHT22;43277;52.672;6.984;2022-07-17T06:00:19;12.70;99.90
57434;DHT22;43277;52.672;6.984;2022-07-17T06:02:46;12.90;99.90
57434;DHT22;43277;52.672;6.984;2022-07-17T06:05:11;13.00;99.90
57434;DHT22;43277;52.672;6.984;2022-07-17T06:07:37;13.20;99.90
57434;DHT22;43277;52.672;6.984;2022-07-17T06:10:04;13.30;99.90
57434;DHT22;43277;52.672;6.984;2022-07-17T06:12:29;13.50;99.90
57434;DHT22;43277;52.672;6.984;2022-07-17T06:14:55;13.50;99.90
57434;DHT22;43277;52.672;6.984;2022-07-17T06:17:21;13.60;99.90
57434;DHT22;43277;52.672;6.984;2022-07-17T06:19:46;13.70;99.90
57434;DHT22;43277;52.672;6.984;2022-07-17T06:22:12;13.70;99.90
57434;DHT22;43277;52.672;6.984;2022-07-17T06:24:38;13.70;99.90
57434;DHT22;43277;52.672;6.984;2022-07-17T06:27:03;13.70;99.90
57434;DHT22;43277;52.672;6.984;2022-07-17T06:29:29;13.90;99.90
57434;DHT22;43277;52.672;6.984;2022-07-17T06:31:54;14.00;99.90
57434;DHT22;43277;52.672;6.984;2022-07-17T06:34:20;14.00;99.90
57434;DHT22;43277;52.672;6.984;2022-07-17T06:36:45;14.00;99.90
57434;DHT22;43277;52.672;6.984;2022-07-17T06:39:12;14.10;99.90
57434;DHT22;43277;52.672;6.984;2022-07-17T06:41:37;14.20;99.90
57434;DHT22;43277;52.672;6.984;2022-07-17T06:44:03;14.20;99.90
57434;DHT22;43277;52.672;6.984;2022-07-17T06:46:29;14.30;99.90
57434;DHT22;43277;52.672;6.984;2022-07-17T06:48:54;14.30;99.90
57434;DHT22;43277;52.672;6.984;2022-07-17T06:51:20;14.30;99.90
57434;DHT22;43277;52.672;6.984;2022-07-17T06:53:45;14.30;99.90
57434;DHT22;43277;52.672;6.984;2022-07-17T06:56:11;14.50;99.90
57434;DHT22;43277;52.672;6.984;2022-07-17T06:58:36;14.60;99.90
57434;DHT22;43277;52.672;6.984;2022-07-17T07:01:02;14.60;99.90
57434;DHT22;43277;52.672;6.984;2022-07-17T07:03:28;14.80;99.90
57434;DHT22;43277;52.672;6.984;2022-07-17T07:05:53;14.90;99.90
57434;DHT22;43277;52.672;6.984;2022-07-17T07:08:20;15.10;99.90
57434;DHT22;43277;52.672;6.984;2022-07-17T07:10:46;15.20;99.90
57434;DHT22;43277;52.672;6.984;2022-07-17T07:13:11;15.30;99.90
57434;DHT22;43277;52.672;6.984;2022-07-17T07:15:37;15.40;99.90
57434;DHT22;43277;52.672;6.984;2022-07-17T07:18:03;15.50;99.90
57434;DHT22;43277;52.672;6.984;2022-07-17T07:20:29;15.60;99.90
57434;DHT22;43277;52.672;6.984;2022-07-17T07:22:54;15.70;99.90
57434;DHT22;43277;52.672;6.984;2022-07-17T07:25:20;15.90;99.90
57434;DHT22;43277;52.672;6.984;2022-07-17T07:27:47;15.90;99.90
57434;DHT22;43277;52.672;6.984;2022-07-17T07:30:12;16.10;99.90
57434;DHT22;43277;52.672;6.984;2022-07-17T07:32:41;16.40;99.90
57434;DHT22;43277;52.672;6.984;2022-07-17T07:35:07;16.50;99.90
57434;DHT22;43277;52.672;6.984;2022-07-17T07:37:33;16.60;99.90
57434;DHT22;43277;52.672;6.984;2022-07-17T07:39:59;16.70;99.90
57434;DHT22;43277;52.672;6.984;2022-07-17T07:42:26;17.00;99.90
57434;DHT22;43277;52.672;6.984;2022-07-17T07:44:52;16.90;99.90
57434;DHT22;43277;52.672;6.984;2022-07-17T07:47:17;17.00;99.90
57434;DHT22;43277;52.672;6.984;2022-07-17T07:49:43;17.10;99.90
57434;DHT22;43277;52.672;6.984;2022-07-17T07:52:09;17.30;99.90
57434;DHT22;43277;52.672;6.984;2022-07-17T07:54:34;17.40;99.90
57434;DHT22;43277;52.672;6.984;2022-07-17T07:57:01;17.40;99.90
57434;DHT22;43277;52.672;6.984;2022-07-17T07:59:28;17.60;99.90
57434;DHT22;43277;52.672;6.984;2022-07-17T08:01:54;17.70;99.90
57434;DHT22;43277;52.672;6.984;2022-07-17T08:04:19;17.60;99.90
57434;DHT22;43277;52.672;6.984;2022-07-17T08:06:45;17.70;99.90
57434;DHT22;43277;52.672;6.984;2022-07-17T08:09:11;17.70;99.90
57434;DHT22;43277;52.672;6.984;2022-07-17T08:11:36;17.80;99.90
57434;DHT22;43277;52.672;6.984;2022-07-17T08:14:02;17.90;99.90
57434;DHT22;43277;52.672;6.984;2022-07-17T08:16:27;18.00;99.90
57434;DHT22;43277;52.672;6.984;2022-07-17T08:18:53;18.10;99.90
57434;DHT22;43277;52.672;6.984;2022-07-17T08:21:19;18.30;99.90
57434;DHT22;43277;52.672;6.984;2022-07-17T08:23:46;18.30;99.90
57434;DHT22;43277;52.672;6.984;2022-07-17T08:26:12;18.40;99.90
57434;DHT22;43277;52.672;6.984;2022-07-17T08:28:38;18.50;99.90
57434;DHT22;43277;52.672;6.984;2022-07-17T08:31:03;18.60;99.90
57434;DHT22;43277;52.672;6.984;2022-07-17T08:33:29;18.60;99.90
57434;DHT22;43277;52.672;6.984;2022-07-17T08:35:55;18.60;99.90
57434;DHT22;43277;52.672;6.984;2022-07-17T08:38:20;18.60;99.90
57434;DHT22;43277;52.672;6.984;2022-07-17T08:40:46;18.70;99.90
57434;DHT22;43277;52.672;6.984;2022-07-17T08:43:14;18.80;98.90
57434;DHT22;43277;52.672;6.984;2022-07-17T08:45:40;18.80;98.90
57434;DHT22;43277;52.672;6.984;2022-07-17T08:48:09;18.90;99.90
57434;DHT22;43277;52.672;6.984;2022-07-17T08:50:37;19.00;99.90
57434;DHT22;43277;52.672;6.984;2022-07-17T08:53:03;19.20;99.90
57434;DHT22;43277;52.672;6.984;2022-07-17T08:55:29;19.30;99.90
57434;DHT22;43277;52.672;6.984;2022-07-17T08:58:05;19.40;99.80
57434;DHT22;43277;52.672;6.984;2022-07-17T09:00:30;19.50;97.20
57434;DHT22;43277;52.672;6.984;2022-07-17T09:02:57;19.50;98.50
57434;DHT22;43277;52.672;6.984;2022-07-17T09:05:25;19.70;96.60
57434;DHT22;43277;52.672;6.984;2022-07-17T09:07:51;19.60;99.10
57434;DHT22;43277;52.672;6.984;2022-07-17T09:10:17;19.70;99.90
57434;DHT22;43277;52.672;6.984;2022-07-17T09:12:42;19.90;99.90
57434;DHT22;43277;52.672;6.984;2022-07-17T09:15:18;20.20;99.90
57434;DHT22;43277;52.672;6.984;2022-07-17T09:17:52;20.30;99.90
57434;DHT22;43277;52.672;6.984;2022-07-17T09:20:19;20.40;99.90
57434;DHT22;43277;52.672;6.984;2022-07-17T09:23:02;20.70;98.00
57434;DHT22;43277;52.672;6.984;2022-07-17T09:25:38;20.70;98.20
57434;DHT22;43277;52.672;6.984;2022-07-17T09:28:06;20.80;95.20
57434;DHT22;43277;52.672;6.984;2022-07-17T09:30:32;20.80;97.00
57434;DHT22;43277;52.672;6.984;2022-07-17T09:32:59;20.90;95.20
57434;DHT22;43277;52.672;6.984;2022-07-17T09:35:25;20.90;94.60
57434;DHT22;43277;52.672;6.984;2022-07-17T09:37:52;21.10;96.60
57434;DHT22;43277;52.672;6.984;2022-07-17T09:40:20;21.20;96.60
57434;DHT22;43277;52.672;6.984;2022-07-17T09:43:04;21.30;97.00
57434;DHT22;43277;52.672;6.984;2022-07-17T09:45:32;21.50;96.30
57434;DHT22;43277;52.672;6.984;2022-07-17T09:47:58;21.60;93.30
57434;DHT22;43277;52.672;6.984;2022-07-17T09:50:25;21.60;94.50
57434;DHT22;43277;52.672;6.984;2022-07-17T09:52:52;21.70;96.60
57434;DHT22;43277;52.672;6.984;2022-07-17T09:55:22;21.80;96.40
57434;DHT22;43277;52.672;6.984;2022-07-17T09:57:49;22.00;96.10
57434;DHT22;43277;52.672;6.984;2022-07-17T10:00:16;22.10;92.30
57434;DHT22;43277;52.672;6.984;2022-07-17T10:02:42;22.10;88.40
57434;DHT22;43277;52.672;6.984;2022-07-17T10:05:13;22.10;86.20
57434;DHT22;43277;52.672;6.984;2022-07-17T10:07:41;21.90;90.40
57434;DHT22;43277;52.672;6.984;2022-07-17T10:10:08;22.00;91.20
57434;DHT22;43277;52.672;6.984;2022-07-17T10:12:38;22.10;89.60
57434;DHT22;43277;52.672;6.984;2022-07-17T10:15:04;22.10;88.20
57434;DHT22;43277;52.672;6.984;2022-07-17T10:17:30;22.20;84.90
57434;DHT22;43277;52.672;6.984;2022-07-17T10:19:56;22.10;85.70
57434;DHT22;43277;52.672;6.984;2022-07-17T10:22:23;22.10;91.20
57434;DHT22;43277;52.672;6.984;2022-07-17T10:24:55;22.20;90.50
57434;DHT22;43277;52.672;6.984;2022-07-17T10:27:26;22.30;88.60
57434;DHT22;43277;52.672;6.984;2022-07-17T10:30:04;22.50;91.90
57434;DHT22;43277;52.672;6.984;2022-07-17T10:32:31;22.80;93.30
57434;DHT22;43277;52.672;6.984;2022-07-17T10:35:07;23.10;92.60
57434;DHT22;43277;52.672;6.984;2022-07-17T10:37:39;23.30;90.40
57434;DHT22;43277;52.672;6.984;2022-07-17T10:42:51;23.60;83.50
57434;DHT22;43277;52.672;6.984;2022-07-17T10:45:26;23.70;81.20
57434;DHT22;43277;52.672;6.984;2022-07-17T10:48:06;23.70;86.00
57434;DHT22;43277;52.672;6.984;2022-07-17T10:50:40;23.80;82.50
57434;DHT22;43277;52.672;6.984;2022-07-17T10:55:50;24.10;75.50
57434;DHT22;43277;52.672;6.984;2022-07-17T10:58:44;24.10;76.70
57434;DHT22;43277;52.672;6.984;2022-07-17T11:06:27;24.50;83.80
57434;DHT22;43277;52.672;6.984;2022-07-17T11:11:50;24.80;77.80
57434;DHT22;43277;52.672;6.984;2022-07-17T11:17:00;24.90;76.60
57434;DHT22;43277;52.672;6.984;2022-07-17T11:19:28;25.00;75.90
57434;DHT22;43277;52.672;6.984;2022-07-17T11:21:57;25.10;67.60
57434;DHT22;43277;52.672;6.984;2022-07-17T11:24:23;25.00;64.60
57434;DHT22;43277;52.672;6.984;2022-07-17T11:26:50;24.80;61.60
57434;DHT22;43277;52.672;6.984;2022-07-17T11:29:16;24.80;62.00
57434;DHT22;43277;52.672;6.984;2022-07-17T11:31:42;24.90;69.70
57434;DHT22;43277;52.672;6.984;2022-07-17T11:34:09;25.10;74.40
57434;DHT22;43277;52.672;6.984;2022-07-17T11:36:38;25.30;76.60
57434;DHT22;43277;52.672;6.984;2022-07-17T11:39:14;25.50;69.40
57434;DHT22;43277;52.672;6.984;2022-07-17T11:41:48;25.60;74.10
57434;DHT22;43277;52.672;6.984;2022-07-17T11:44:24;25.70;65.70
57434;DHT22;43277;52.672;6.984;2022-07-17T11:46:50;25.70;62.60
57434;DHT22;43277;52.672;6.984;2022-07-17T11:49:34;25.80;60.40
57434;DHT22;43277;52.672;6.984;2022-07-17T11:52:14;25.80;57.40
57434;DHT22;43277;52.672;6.984;2022-07-17T11:54:49;25.80;59.50
57434;DHT22;43277;52.672;6.984;2022-07-17T11:57:16;25.90;57.90
57434;DHT22;43277;52.672;6.984;2022-07-17T11:59:42;26.00;57.90
57434;DHT22;43277;52.672;6.984;2022-07-17T12:02:10;26.00;55.90
57434;DHT22;43277;52.672;6.984;2022-07-17T12:04:47;26.10;56.50
57434;DHT22;43277;52.672;6.984;2022-07-17T12:07:12;26.30;60.40
57434;DHT22;43277;52.672;6.984;2022-07-17T12:09:38;26.40;57.30
57434;DHT22;43277;52.672;6.984;2022-07-17T12:12:04;26.40;57.40
57434;DHT22;43277;52.672;6.984;2022-07-17T12:14:30;26.60;62.30
57434;DHT22;43277;52.672;6.984;2022-07-17T12:16:57;26.60;58.80
57434;DHT22;43277;52.672;6.984;2022-07-17T12:19:24;26.60;60.80
57434;DHT22;43277;52.672;6.984;2022-07-17T12:22:02;26.60;55.40
57434;DHT22;43277;52.672;6.984;2022-07-17T12:24:33;26.60;60.70
57434;DHT22;43277;52.672;6.984;2022-07-17T12:27:03;26.60;60.20
57434;DHT22;43277;52.672;6.984;2022-07-17T12:29:29;26.90;62.40
57434;DHT22;43277;52.672;6.984;2022-07-17T12:32:09;27.20;64.60
57434;DHT22;43277;52.672;6.984;2022-07-17T12:34:44;27.30;61.80
57434;DHT22;43277;52.672;6.984;2022-07-17T12:37:19;27.40;62.20
57434;DHT22;43277;52.672;6.984;2022-07-17T12:39:46;27.50;57.90
57434;DHT22;43277;52.672;6.984;2022-07-17T12:42:13;27.50;54.10
57434;DHT22;43277;52.672;6.984;2022-07-17T12:44:38;27.30;56.20
57434;DHT22;43277;52.672;6.984;2022-07-17T12:47:04;27.20;53.90
57434;DHT22;43277;52.672;6.984;2022-07-17T12:49:30;27.20;58.20
57434;DHT22;43277;52.672;6.984;2022-07-17T12:51:56;27.20;58.60
57434;DHT22;43277;52.672;6.984;2022-07-17T12:54:22;27.20;56.20
57434;DHT22;43277;52.672;6.984;2022-07-17T12:56:48;27.30;58.40
57434;DHT22;43277;52.672;6.984;2022-07-17T12:59:14;27.40;60.30
57434;DHT22;43277;52.672;6.984;2022-07-17T13:01:40;27.60;62.00
57434;DHT22;43277;52.672;6.984;2022-07-17T13:04:05;27.60;61.00
57434;DHT22;43277;52.672;6.984;2022-07-17T13:06:31;27.60;57.80
57434;DHT22;43277;52.672;6.984;2022-07-17T13:08:58;27.70;53.70
57434;DHT22;43277;52.672;6.984;2022-07-17T13:11:24;27.80;50.50
57434;DHT22;43277;52.672;6.984;2022-07-17T13:13:50;27.80;50.40
57434;DHT22;43277;52.672;6.984;2022-07-17T13:16:15;27.80;52.10
57434;DHT22;43277;52.672;6.984;2022-07-17T13:18:41;27.90;50.80
57434;DHT22;43277;52.672;6.984;2022-07-17T13:21:07;28.00;48.80
57434;DHT22;43277;52.672;6.984;2022-07-17T13:23:33;28.00;49.10
57434;DHT22;43277;52.672;6.984;2022-07-17T13:26:00;28.00;48.00
57434;DHT22;43277;52.672;6.984;2022-07-17T13:28:25;28.00;49.80
57434;DHT22;43277;52.672;6.984;2022-07-17T13:30:51;28.00;48.50
57434;DHT22;43277;52.672;6.984;2022-07-17T13:33:17;28.00;48.20
57434;DHT22;43277;52.672;6.984;2022-07-17T13:35:43;28.10;48.00
57434;DHT22;43277;52.672;6.984;2022-07-17T13:38:08;28.30;47.00
57434;DHT22;43277;52.672;6.984;2022-07-17T13:40:35;28.20;49.40
57434;DHT22;43277;52.672;6.984;2022-07-17T13:43:01;28.30;49.40
57434;DHT22;43277;52.672;6.984;2022-07-17T13:45:27;28.40;46.70
57434;DHT22;43277;52.672;6.984;2022-07-17T13:47:53;28.60;47.40
57434;DHT22;43277;52.672;6.984;2022-07-17T13:50:19;28.80;46.80
57434;DHT22;43277;52.672;6.984;2022-07-17T13:52:45;29.00;49.10
57434;DHT22;43277;52.672;6.984;2022-07-17T13:55:12;29.10;50.00
57434;DHT22;43277;52.672;6.984;2022-07-17T13:57:37;29.20;51.90
57434;DHT22;43277;52.672;6.984;2022-07-17T14:00:04;29.20;46.30
57434;DHT22;43277;52.672;6.984;2022-07-17T14:02:30;29.20;49.90
57434;DHT22;43277;52.672;6.984;2022-07-17T14:04:56;29.10;48.50
57434;DHT22;43277;52.672;6.984;2022-07-17T14:07:21;29.10;51.10
57434;DHT22;43277;52.672;6.984;2022-07-17T14:09:47;29.00;52.70
57434;DHT22;43277;52.672;6.984;2022-07-17T14:12:14;28.70;49.00
57434;DHT22;43277;52.672;6.984;2022-07-17T14:14:39;28.70;54.10
57434;DHT22;43277;52.672;6.984;2022-07-17T14:17:05;28.70;55.00
57434;DHT22;43277;52.672;6.984;2022-07-17T14:19:30;28.60;56.50
57434;DHT22;43277;52.672;6.984;2022-07-17T14:21:56;28.50;56.20
57434;DHT22;43277;52.672;6.984;2022-07-17T14:24:22;28.50;57.20
57434;DHT22;43277;52.672;6.984;2022-07-17T14:26:47;28.60;56.60
57434;DHT22;43277;52.672;6.984;2022-07-17T14:29:14;28.60;57.60
57434;DHT22;43277;52.672;6.984;2022-07-17T14:31:40;28.60;56.50
57434;DHT22;43277;52.672;6.984;2022-07-17T14:34:05;28.60;54.90
57434;DHT22;43277;52.672;6.984;2022-07-17T14:36:31;28.60;53.40
57434;DHT22;43277;52.672;6.984;2022-07-17T14:38:57;28.70;56.90
57434;DHT22;43277;52.672;6.984;2022-07-17T14:41:22;28.60;53.20
57434;DHT22;43277;52.672;6.984;2022-07-17T14:43:48;28.70;54.40
57434;DHT22;43277;52.672;6.984;2022-07-17T14:46:14;28.70;54.30
57434;DHT22;43277;52.672;6.984;2022-07-17T14:48:40;29.00;54.80
57434;DHT22;43277;52.672;6.984;2022-07-17T14:51:06;29.20;49.50
57434;DHT22;43277;52.672;6.984;2022-07-17T14:53:31;29.20;51.80
57434;DHT22;43277;52.672;6.984;2022-07-17T14:55:57;28.80;51.60
57434;DHT22;43277;52.672;6.984;2022-07-17T14:58:23;28.70;52.00
57434;DHT22;43277;52.672;6.984;2022-07-17T15:00:48;28.50;53.30
57434;DHT22;43277;52.672;6.984;2022-07-17T15:03:14;28.40;54.20
57434;DHT22;43277;52.672;6.984;2022-07-17T15:05:40;28.30;52.60
57434;DHT22;43277;52.672;6.984;2022-07-17T15:08:06;28.30;52.00
57434;DHT22;43277;52.672;6.984;2022-07-17T15:10:31;28.40;53.60
57434;DHT22;43277;52.672;6.984;2022-07-17T15:12:58;28.20;58.50
57434;DHT22;43277;52.672;6.984;2022-07-17T15:15:25;28.20;56.40
57434;DHT22;43277;52.672;6.984;2022-07-17T15:17:50;28.10;56.90
57434;DHT22;43277;52.672;6.984;2022-07-17T15:20:16;28.00;53.60
57434;DHT22;43277;52.672;6.984;2022-07-17T15:22:41;27.90;55.90
57434;DHT22;43277;52.672;6.984;2022-07-17T15:25:07;27.80;57.50
57434;DHT22;43277;52.672;6.984;2022-07-17T15:27:33;27.60;57.50
57434;DHT22;43277;52.672;6.984;2022-07-17T15:29:58;27.80;51.70
57434;DHT22;43277;52.672;6.984;2022-07-17T15:32:24;28.20;48.90
57434;DHT22;43277;52.672;6.984;2022-07-17T15:34:49;28.50;49.00
57434;DHT22;43277;52.672;6.984;2022-07-17T15:37:15;28.60;48.10
57434;DHT22;43277;52.672;6.984;2022-07-17T15:39:40;28.80;47.60
57434;DHT22;43277;52.672;6.984;2022-07-17T15:42:06;28.80;51.80
57434;DHT22;43277;52.672;6.984;2022-07-17T15:44:32;28.90;49.20
57434;DHT22;43277;52.672;6.984;2022-07-17T15:46:57;28.80;52.50
57434;DHT22;43277;52.672;6.984;2022-07-17T15:49:23;28.70;54.30